Time;durP1;ratioP1;P1;durP2;ratioP2;P2;SDS_P1;SDS_P2;PMS_P1;PMS_P2;Temp;Humidity;BMP_temperature;BMP_pressure;BME280_temperature;BME280_humidity;BME280_pressure;Samples;Min_cycle;Max_cycle;Signal;HPM_P1;HPM_P2
2023/04/05 00:00:56;;;;;;;12.70;5.63;;;1.80;99.90;;;;;;5051400;28;20388;-53
2023/04/05 00:03:22;;;;;;;12.00;5.43;;;1.80;99.90;;;;;;5050731;28;20389;-55
2023/04/05 00:05:48;;;;;;;13.23;5.53;;;1.80;99.90;;;;;;5051069;28;20389;-53
2023/04/05 00:08:22;;;;;;;17.70;5.40;;;1.90;99.90;;;;;;5051217;28;20397;-53
2023/04/05 00:10:49;;;;;;;15.27;5.90;;;1.90;99.90;;;;;;5051572;28;20831;-53
2023/04/05 00:13:15;;;;;;;14.13;5.72;;;1.80;99.90;;;;;;5051006;28;20425;-53
2023/04/05 00:15:41;;;;;;;14.10;5.72;;;1.90;99.90;;;;;;5050392;28;20464;-53
2023/04/05 00:18:07;;;;;;;13.13;5.30;;;1.80;99.90;;;;;;5051242;28;20527;-52
2023/04/05 00:20:32;;;;;;;12.00;5.50;;;1.80;99.90;;;;;;5050357;28;21059;-52
2023/04/05 00:22:58;;;;;;;13.73;5.33;;;1.90;99.90;;;;;;5051263;28;20378;-52
2023/04/05 00:25:24;;;;;;;13.70;5.60;;;1.90;99.90;;;;;;5050605;28;20396;-53
2023/04/05 00:27:50;;;;;;;11.40;4.83;;;1.90;99.90;;;;;;5051335;28;20408;-52
2023/04/05 00:30:19;;;;;;;13.85;4.88;;;2.10;99.90;;;;;;5050904;28;20409;-53
2023/04/05 00:32:48;;;;;;;11.27;5.53;;;2.20;99.90;;;;;;5051130;28;20442;-53
2023/04/05 00:35:15;;;;;;;12.55;5.10;;;2.20;99.90;;;;;;5050786;28;20378;-52
2023/04/05 00:37:40;;;;;;;11.43;5.00;;;2.00;99.90;;;;;;5050157;28;20707;-53
2023/04/05 00:40:07;;;;;;;12.18;4.70;;;1.90;99.90;;;;;;5050462;28;20472;-52
2023/04/05 00:42:34;;;;;;;14.90;5.85;;;1.70;99.90;;;;;;5049724;28;20393;-53
2023/04/05 00:45:00;;;;;;;11.25;5.38;;;1.70;99.90;;;;;;5050432;28;20397;-53
2023/04/05 00:47:26;;;;;;;14.80;5.60;;;1.60;99.90;;;;;;5050034;28;20472;-53
2023/04/05 00:49:52;;;;;;;14.73;5.55;;;1.50;99.90;;;;;;5050969;28;20404;-52
2023/04/05 00:52:22;;;;;;;11.73;5.47;;;1.50;99.90;;;;;;5050296;28;20409;-53
2023/04/05 00:54:48;;;;;;;12.63;5.27;;;1.50;99.90;;;;;;5050260;28;20390;-52
2023/04/05 00:57:15;;;;;;;13.05;4.78;;;1.40;99.90;;;;;;5049319;28;20381;-53
2023/04/05 00:59:41;;;;;;;11.32;5.20;;;1.40;99.90;;;;;;5049370;28;20389;-53
2023/04/05 01:02:23;;;;;;;12.00;5.27;;;1.50;99.90;;;;;;5050601;28;20715;-53
2023/04/05 01:05:00;;;;;;;10.82;5.10;;;1.50;99.90;;;;;;5050494;28;20377;-52
2023/04/05 01:07:45;;;;;;;11.00;4.65;;;1.60;99.90;;;;;;5049154;28;20867;-53
2023/04/05 01:10:15;;;;;;;12.73;4.55;;;1.70;99.90;;;;;;5050499;28;20456;-52
2023/04/05 01:12:41;;;;;;;12.07;5.17;;;1.70;99.90;;;;;;5049102;28;21259;-52
2023/04/05 01:15:07;;;;;;;12.95;5.05;;;1.70;99.90;;;;;;5049957;28;20378;-52
2023/04/05 01:17:37;;;;;;;12.00;5.35;;;1.70;99.90;;;;;;5049743;28;20774;-52
2023/04/05 01:20:12;;;;;;;12.27;4.87;;;1.60;99.90;;;;;;5050215;28;20416;-52
2023/04/05 01:23:14;;;;;;;13.05;5.55;;;1.70;99.90;;;;;;5049110;28;20386;-52
2023/04/05 01:25:40;;;;;;;12.77;5.65;;;1.60;99.90;;;;;;5049215;28;20847;-53
2023/04/05 01:28:17;;;;;;;12.27;5.85;;;1.50;99.90;;;;;;5049427;28;20875;-52
2023/04/05 01:30:51;;;;;;;13.60;6.47;;;1.60;99.90;;;;;;5048692;28;20540;-52
2023/04/05 01:33:25;;;;;;;13.50;5.73;;;1.40;99.90;;;;;;5049831;28;20377;-53
2023/04/05 01:36:09;;;;;;;13.95;5.65;;;1.30;99.90;;;;;;5049879;28;20443;-52
2023/04/05 01:38:39;;;;;;;11.80;5.03;;;1.30;99.90;;;;;;5049282;28;20374;-52
2023/04/05 01:41:05;;;;;;;11.02;5.13;;;1.40;99.90;;;;;;5049466;28;20382;-52
2023/04/05 01:43:31;;;;;;;11.10;5.17;;;1.40;99.90;;;;;;5049406;28;20384;-53
2023/04/05 01:45:56;;;;;;;15.70;5.90;;;1.30;99.90;;;;;;5049879;28;20378;-53
2023/04/05 01:48:22;;;;;;;13.35;5.60;;;2.20;1.00;;;;;;5049214;28;20413;-54
2023/04/05 01:50:48;;;;;;;11.68;5.00;;;2.00;99.90;;;;;;5049176;28;20415;-53
2023/04/05 01:53:13;;;;;;;13.70;5.20;;;1.00;99.90;;;;;;5049570;28;20743;-52
2023/04/05 01:55:39;;;;;;;12.52;5.00;;;1.20;99.90;;;;;;5048888;28;20425;-56
2023/04/05 01:58:05;;;;;;;11.85;5.47;;;1.10;99.90;;;;;;5048889;28;20476;-52
2023/04/05 02:00:31;;;;;;;11.53;4.90;;;1.70;99.90;;;;;;5049087;28;20390;-53
2023/04/05 02:02:57;;;;;;;11.13;4.53;;;0.90;1.00;;;;;;5049459;28;20385;-52
2023/04/05 02:05:22;;;;;;;11.17;5.00;;;0.70;1.00;;;;;;5049334;28;20851;-52
2023/04/05 02:07:48;;;;;;;11.10;5.37;;;0.70;1.00;;;;;;5050480;28;20385;-52
2023/04/05 02:10:16;;;;;;;12.02;4.82;;;0.70;1.00;;;;;;5053009;28;20735;-52
2023/04/05 02:12:42;;;;;;;12.67;5.07;;;0.70;1.00;;;;;;5052608;28;20429;-52
2023/04/05 02:15:08;;;;;;;12.70;5.47;;;0.80;1.00;;;;;;5053413;28;20881;-52
2023/04/05 02:17:38;;;;;;;13.00;5.70;;;0.80;1.00;;;;;;5052460;28;20412;-52
2023/04/05 02:20:06;;;;;;;12.45;5.28;;;0.80;1.00;;;;;;5053238;28;20417;-52
2023/04/05 02:22:32;;;;;;;12.80;5.33;;;0.90;1.00;;;;;;5052350;28;20480;-52
2023/04/05 02:24:57;;;;;;;12.70;5.60;;;0.90;1.00;;;;;;5053346;28;20475;-52
2023/04/05 02:27:24;;;;;;;11.13;5.07;;;0.90;1.00;;;;;;5053066;28;20404;-54
2023/04/05 02:29:50;;;;;;;13.23;4.95;;;0.90;1.00;;;;;;5052980;28;20465;-52
2023/04/05 02:32:16;;;;;;;10.80;5.47;;;0.80;1.00;;;;;;5053235;28;20405;-52
2023/04/05 02:34:42;;;;;;;10.33;4.93;;;0.70;1.00;;;;;;5052392;28;21104;-52
2023/04/05 02:37:07;;;;;;;12.82;5.75;;;0.70;1.00;;;;;;5052805;28;20767;-52
2023/04/05 02:39:33;;;;;;;13.47;5.00;;;0.70;1.00;;;;;;5052286;28;20370;-52
2023/04/05 02:41:59;;;;;;;22.33;5.50;;;0.70;1.00;;;;;;5052899;28;20385;-52
2023/04/05 02:44:24;;;;;;;12.87;5.13;;;0.70;1.00;;;;;;5052420;28;20878;-54
2023/04/05 02:46:50;;;;;;;13.07;4.73;;;0.60;1.00;;;;;;5052936;28;20396;-52
2023/04/05 02:49:16;;;;;;;11.40;4.82;;;0.60;1.00;;;;;;5053011;28;20719;-52
2023/04/05 02:51:41;;;;;;;14.52;4.80;;;0.50;1.00;;;;;;5052110;28;20413;-52
2023/04/05 02:54:08;;;;;;;12.27;4.80;;;0.50;1.00;;;;;;5052697;28;20408;-52
2023/04/05 02:56:33;;;;;;;13.00;5.22;;;0.40;1.00;;;;;;5052014;28;20389;-53
2023/04/05 02:58:59;;;;;;;9.90;4.90;;;0.40;1.00;;;;;;5053072;28;20477;-52
2023/04/05 03:01:25;;;;;;;12.40;5.25;;;0.40;1.00;;;;;;5051658;28;20399;-53
2023/04/05 03:03:51;;;;;;;11.63;4.05;;;0.30;1.00;;;;;;5052569;28;20431;-52
2023/04/05 03:06:17;;;;;;;12.45;5.40;;;0.30;85.50;;;;;;5052038;28;20377;-52
2023/04/05 03:08:42;;;;;;;11.57;5.05;;;0.30;99.90;;;;;;5051250;28;20389;-52
2023/04/05 03:11:10;;;;;;;12.00;5.15;;;0.30;99.90;;;;;;5052464;28;20471;-52
2023/04/05 03:13:35;;;;;;;13.18;5.10;;;0.20;99.90;;;;;;5051310;28;20416;-52
2023/04/05 03:16:02;;;;;;;14.00;4.95;;;0.10;99.90;;;;;;5051979;28;20374;-52
2023/04/05 03:18:31;;;;;;;12.43;5.10;;;0.10;99.90;;;;;;5051237;28;20843;-53
2023/04/05 03:20:57;;;;;;;12.35;5.43;;;0.10;99.90;;;;;;5051762;28;20389;-52
2023/04/05 03:23:30;;;;;;;12.40;5.03;;;0.10;99.90;;;;;;5051919;28;20377;-52
2023/04/05 03:26:02;;;;;;;13.85;5.00;;;0.10;99.90;;;;;;5052028;28;20456;-52
2023/04/05 03:28:31;;;;;;;11.55;4.93;;;0.30;99.90;;;;;;5051106;28;20377;-54
2023/04/05 03:30:57;;;;;;;11.65;4.53;;;0.20;99.90;;;;;;5051297;28;20883;-54
2023/04/05 03:33:22;;;;;;;10.30;4.80;;;0.30;79.30;;;;;;5051924;28;20442;-52
2023/04/05 03:35:48;;;;;;;15.27;5.20;;;0.50;19.60;;;;;;5051968;28;20412;-52
2023/04/05 03:38:15;;;;;;;12.85;4.50;;;0.10;1.00;;;;;;5051931;28;20393;-52
2023/04/05 03:40:40;;;;;;;13.35;5.75;;;0.00;1.00;;;;;;5050963;28;20373;-52
2023/04/05 03:43:06;;;;;;;13.20;4.93;;;0.10;1.00;;;;;;5051871;28;20388;-52
2023/04/05 03:45:32;;;;;;;13.67;4.50;;;0.00;1.00;;;;;;5049414;28;20400;-52
2023/04/05 03:47:58;;;;;;;15.00;4.93;;;0.00;1.00;;;;;;5051731;28;20474;-52
2023/04/05 03:50:28;;;;;;;10.60;4.73;;;0.00;14.30;;;;;;5051960;28;20622;-53
2023/04/05 03:52:53;;;;;;;11.80;5.20;;;-0.10;1.00;;;;;;5051832;28;20472;-52
2023/04/05 03:55:19;;;;;;;10.82;5.10;;;-0.10;1.00;;;;;;5051867;28;20826;-52
2023/04/05 03:57:45;;;;;;;13.77;4.23;;;-0.20;1.00;;;;;;5051141;28;20408;-52
2023/04/05 04:00:19;;;;;;;12.90;4.80;;;-0.20;1.00;;;;;;5051547;28;20385;-52
2023/04/05 04:02:46;;;;;;;11.88;4.55;;;-0.20;67.50;;;;;;5050592;28;20838;-52
2023/04/05 04:05:13;;;;;;;11.48;4.68;;;-0.30;39.80;;;;;;5051191;28;20385;-52
2023/04/05 04:07:40;;;;;;;12.38;5.22;;;-0.40;99.90;;;;;;5051110;28;20572;-52
2023/04/05 04:10:07;;;;;;;14.23;5.50;;;-0.40;1.00;;;;;;5050914;28;20731;-52
2023/04/05 04:12:33;;;;;;;10.30;4.75;;;-0.30;1.00;;;;;;5050763;28;20390;-52
2023/04/05 04:14:59;;;;;;;12.10;5.00;;;-0.30;1.00;;;;;;5051013;28;20886;-51
2023/04/05 04:17:29;;;;;;;15.88;5.72;;;-0.40;1.00;;;;;;5050606;28;20835;-54
2023/04/05 04:19:56;;;;;;;12.52;5.30;;;-0.40;1.00;;;;;;5050739;28;20393;-52
2023/04/05 04:22:25;;;;;;;12.60;5.22;;;-0.50;1.00;;;;;;5051067;28;20378;-52
2023/04/05 04:24:52;;;;;;;12.05;4.95;;;-0.50;1.00;;;;;;5050890;28;20385;-51
2023/04/05 04:27:21;;;;;;;12.98;5.10;;;-0.50;1.00;;;;;;5051225;28;20427;-51
2023/04/05 04:29:47;;;;;;;11.57;4.77;;;-0.60;1.00;;;;;;5050360;28;20450;-51
2023/04/05 04:32:16;;;;;;;13.23;6.10;;;-0.50;1.00;;;;;;5050739;28;20859;-52
2023/04/05 04:34:44;;;;;;;11.63;5.80;;;-0.50;1.00;;;;;;5049804;28;20768;-51
2023/04/05 04:37:16;;;;;;;17.55;5.35;;;-0.50;1.00;;;;;;5050597;28;20403;-52
2023/04/05 04:39:45;;;;;;;14.35;5.65;;;-0.60;1.00;;;;;;5050371;28;20377;-52
2023/04/05 04:42:10;;;;;;;15.75;5.13;;;-0.60;1.00;;;;;;5033297;28;20480;-52
2023/04/05 04:44:36;;;;;;;13.25;5.85;;;-0.60;1.00;;;;;;5049304;28;20516;-52
2023/04/05 04:47:02;;;;;;;13.82;6.05;;;-0.60;28.10;;;;;;5050752;28;20386;-52
2023/04/05 04:49:30;;;;;;;13.37;5.60;;;-0.50;64.50;;;;;;5049768;28;20502;-53
2023/04/05 04:51:58;;;;;;;13.85;6.07;;;-0.70;99.90;;;;;;5050658;28;20456;-52
2023/04/05 04:54:23;;;;;;;14.00;6.20;;;-0.60;99.90;;;;;;5050249;28;20396;-52
2023/04/05 04:56:49;;;;;;;10.73;5.27;;;-0.60;99.90;;;;;;5049844;28;20377;-52
2023/04/05 04:59:15;;;;;;;16.03;5.27;;;-0.60;99.90;;;;;;5050620;28;20409;-52
2023/04/05 05:01:43;;;;;;;18.10;5.88;;;-0.70;99.90;;;;;;5049241;28;20401;-52
2023/04/05 05:04:09;;;;;;;14.60;6.22;;;-0.70;99.90;;;;;;5049939;28;20473;-52
2023/04/05 05:06:34;;;;;;;16.45;5.60;;;-0.60;99.90;;;;;;5048810;28;20460;-53
2023/04/05 05:09:00;;;;;;;15.03;5.80;;;-0.50;99.90;;;;;;5050328;28;20374;-52
2023/04/05 05:11:27;;;;;;;12.20;5.03;;;-0.50;99.90;;;;;;5050199;28;20409;-54
2023/04/05 05:13:53;;;;;;;12.35;5.80;;;-0.50;99.90;;;;;;5049828;28;20420;-53
2023/04/05 05:16:22;;;;;;;11.37;5.20;;;-0.30;99.90;;;;;;5049912;28;20787;-52
2023/04/05 05:18:50;;;;;;;12.80;5.20;;;-0.30;99.90;;;;;;5049334;28;20389;-52
2023/04/05 05:21:15;;;;;;;13.88;5.90;;;-0.20;78.10;;;;;;5049803;28;20408;-52
2023/04/05 05:23:41;;;;;;;12.25;5.35;;;-0.10;95.20;;;;;;5049534;28;20840;-52
2023/04/05 05:26:06;;;;;;;13.47;5.40;;;0.10;75.50;;;;;;5050296;28;20865;-52
2023/04/05 05:28:32;;;;;;;13.10;5.10;;;0.20;1.00;;;;;;5049625;28;20401;-52
2023/04/05 05:30:57;;;;;;;12.38;5.35;;;0.40;1.00;;;;;;5049937;28;20421;-52
2023/04/05 05:33:24;;;;;;;12.03;5.50;;;0.60;99.90;;;;;;5050040;28;20374;-52
2023/04/05 05:35:50;;;;;;;12.13;5.45;;;0.90;99.90;;;;;;5048807;28;20393;-52
2023/04/05 05:38:16;;;;;;;15.85;5.40;;;1.20;99.90;;;;;;5049822;28;20842;-52
2023/04/05 05:40:42;;;;;;;12.93;5.40;;;1.60;83.40;;;;;;5049188;28;20391;-52
2023/04/05 05:43:09;;;;;;;12.48;5.57;;;2.10;5.50;;;;;;5049250;28;20401;-52
2023/04/05 05:45:35;;;;;;;13.32;5.30;;;2.20;1.00;;;;;;5048832;28;20389;-53
2023/04/05 05:48:01;;;;;;;14.77;5.50;;;2.20;1.00;;;;;;5049288;28;20389;-53
2023/04/05 05:50:26;;;;;;;14.40;6.13;;;2.50;1.00;;;;;;5049646;28;20376;-55
2023/04/05 05:52:52;;;;;;;11.48;5.30;;;3.20;1.00;;;;;;5049489;28;20735;-53
2023/04/05 05:55:18;;;;;;;12.82;5.25;;;3.90;1.00;;;;;;5050242;28;20377;-53
2023/04/05 05:57:44;;;;;;;18.30;5.80;;;5.20;1.00;;;;;;5049592;28;20381;-53
2023/04/05 06:00:10;;;;;;;16.00;5.60;;;4.70;1.00;;;;;;5049517;28;20401;-53
2023/04/05 06:02:35;;;;;;;13.55;5.47;;;5.00;1.00;;;;;;5049202;28;20538;-53
2023/04/05 06:05:01;;;;;;;11.00;5.10;;;5.30;1.00;;;;;;5042327;28;20480;-53
2023/04/05 06:07:27;;;;;;;16.43;6.40;;;5.30;1.00;;;;;;5049658;28;20389;-54
2023/04/05 06:09:53;;;;;;;12.05;5.70;;;5.60;1.00;;;;;;5049876;28;20515;-54
2023/04/05 06:12:21;;;;;;;12.80;5.20;;;6.10;1.00;;;;;;5049840;28;20405;-53
2023/04/05 06:14:47;;;;;;;12.23;5.20;;;7.60;1.00;;;;;;5049289;28;20869;-54
2023/04/05 06:17:12;;;;;;;12.50;5.20;;;7.50;1.00;;;;;;5049876;28;20381;-54
2023/04/05 06:19:38;;;;;;;12.03;6.40;;;8.50;1.00;;;;;;5048887;28;20381;-54
2023/04/05 06:22:04;;;;;;;13.65;6.75;;;7.80;1.00;;;;;;5049521;28;20389;-54
2023/04/05 06:24:30;;;;;;;13.60;6.40;;;8.30;19.90;;;;;;5048679;28;20378;-55
2023/04/05 06:26:57;;;;;;;16.90;7.78;;;8.50;14.40;;;;;;5049220;28;20460;-52
2023/04/05 06:29:22;;;;;;;14.45;7.15;;;8.40;10.20;;;;;;5048975;28;20444;-52
2023/04/05 06:31:48;;;;;;;12.63;6.90;;;9.20;3.10;;;;;;5048576;28;20437;-52
2023/04/05 06:34:14;;;;;;;13.52;7.20;;;9.50;1.00;;;;;;5049264;28;20404;-53
2023/04/05 06:36:39;;;;;;;14.57;7.10;;;9.50;1.00;;;;;;5048807;28;20449;-54
2023/04/05 06:39:05;;;;;;;15.70;7.93;;;9.70;19.80;;;;;;5049429;28;20388;-54
2023/04/05 06:41:31;;;;;;;14.40;7.10;;;10.10;99.90;;;;;;5048944;28;20378;-55
2023/04/05 06:43:56;;;;;;;14.80;7.87;;;10.20;99.90;;;;;;5049802;28;20443;-54
2023/04/05 06:46:23;;;;;;;13.45;8.18;;;10.20;99.90;;;;;;5049266;28;20774;-54
2023/04/05 06:48:49;;;;;;;14.63;8.20;;;10.70;99.90;;;;;;5048637;28;20378;-56
2023/04/05 06:51:15;;;;;;;13.88;8.05;;;11.50;99.90;;;;;;5049145;28;20516;-55
2023/04/05 06:53:40;;;;;;;16.98;8.60;;;11.60;99.90;;;;;;5047992;28;20820;-55
2023/04/05 06:56:06;;;;;;;17.10;9.20;;;11.80;99.90;;;;;;5051891;28;20427;-54
2023/04/05 06:58:32;;;;;;;13.80;8.00;;;11.70;99.90;;;;;;5051310;28;20420;-55
2023/04/05 07:01:00;;;;;;;13.05;8.27;;;12.00;99.90;;;;;;5052214;28;20467;-55
2023/04/05 07:03:25;;;;;;;16.90;8.02;;;12.20;99.90;;;;;;5052542;28;20484;-54
2023/04/05 07:05:53;;;;;;;14.82;8.57;;;11.20;99.90;;;;;;5051608;28;20476;-55
2023/04/05 07:08:20;;;;;;;15.32;9.00;;;11.60;99.90;;;;;;5052250;28;20451;-55
2023/04/05 07:10:46;;;;;;;12.30;8.60;;;12.60;99.90;;;;;;5051505;28;20511;-58
2023/04/05 07:13:12;;;;;;;15.07;8.80;;;12.90;99.90;;;;;;5052576;28;20385;-56
2023/04/05 07:15:37;;;;;;;13.27;9.67;;;14.00;99.90;;;;;;5051717;28;20389;-57
2023/04/05 07:18:03;;;;;;;12.65;8.82;;;14.10;99.90;;;;;;5052649;28;20427;-58
2023/04/05 07:20:28;;;;;;;14.73;10.30;;;13.60;99.90;;;;;;5051779;28;20747;-56
2023/04/05 07:22:54;;;;;;;12.80;9.90;;;14.40;99.90;;;;;;5051783;28;20420;-57
2023/04/05 07:25:20;;;;;;;12.63;9.07;;;14.50;99.90;;;;;;5052478;28;20854;-56
2023/04/05 07:27:45;;;;;;;15.23;12.70;;;13.90;99.90;;;;;;5051111;28;20393;-56
2023/04/05 07:30:12;;;;;;;15.57;13.88;;;13.40;99.90;;;;;;5051684;28;20556;-59
2023/04/05 07:32:37;;;;;;;13.48;11.25;;;12.60;99.90;;;;;;5051201;28;20417;-59
2023/04/05 07:35:03;;;;;;;14.38;12.88;;;13.10;99.90;;;;;;5052669;28;20390;-56
2023/04/05 07:37:29;;;;;;;12.18;6.00;;;13.90;99.90;;;;;;5051434;28;20389;-54
2023/04/05 07:39:54;;;;;;;12.70;6.10;;;14.20;99.90;;;;;;5051985;28;20397;-53
2023/04/05 07:42:20;;;;;;;11.98;5.88;;;13.80;99.90;;;;;;5051687;28;20459;-53
2023/04/05 07:44:46;;;;;;;13.60;6.70;;;14.10;99.90;;;;;;5050845;28;20377;-53
2023/04/05 07:47:12;;;;;;;13.23;6.40;;;14.10;99.90;;;;;;5051645;28;20385;-53
2023/04/05 07:49:37;;;;;;;11.02;5.88;;;15.30;99.90;;;;;;5050795;28;20851;-53
2023/04/05 07:52:03;;;;;;;15.63;11.73;;;16.40;99.90;;;;;;5051074;28;20489;-54
2023/04/05 07:54:35;;;;;;;14.47;12.00;;;15.40;99.90;;;;;;5051226;28;20389;-54
2023/04/05 07:57:01;;;;;;;13.40;12.00;;;15.60;99.90;;;;;;5051412;28;20385;-54
2023/04/05 07:59:28;;;;;;;15.60;9.38;;;16.10;99.90;;;;;;5051493;28;20389;-54
2023/04/05 08:01:54;;;;;;;12.90;6.28;;;17.40;99.90;;;;;;5051143;28;20894;-54
2023/04/05 08:04:19;;;;;;;12.80;6.80;;;16.90;99.90;;;;;;5033448;28;20448;-54
2023/04/05 08:06:46;;;;;;;10.88;6.80;;;17.40;99.90;;;;;;5050208;28;20381;-56
2023/04/05 08:09:12;;;;;;;11.52;6.97;;;17.70;99.90;;;;;;5051062;28;20405;-56
2023/04/05 08:11:38;;;;;;;12.23;6.95;;;18.40;99.90;;;;;;5049932;28;20811;-57
2023/04/05 08:14:04;;;;;;;13.48;8.23;;;19.10;99.90;;;;;;5050775;28;20420;-56
2023/04/05 08:16:30;;;;;;;13.98;8.00;;;18.00;99.90;;;;;;5050828;28;20381;-57
2023/04/05 08:18:55;;;;;;;13.65;6.68;;;17.60;99.90;;;;;;5050349;28;20487;-56
2023/04/05 08:21:22;;;;;;;11.70;6.07;;;17.50;99.90;;;;;;5050622;28;20390;-56
2023/04/05 08:23:48;;;;;;;9.73;5.30;;;17.70;99.90;;;;;;5050126;28;20374;-57
2023/04/05 08:26:15;;;;;;;10.52;5.35;;;18.60;99.90;;;;;;5050993;28;20447;-56
2023/04/05 08:28:41;;;;;;;14.32;6.00;;;18.40;99.90;;;;;;5049409;28;20413;-57
2023/04/05 08:31:07;;;;;;;13.18;5.95;;;18.50;1.00;;;;;;5050860;28;20405;-56
2023/04/05 08:33:32;;;;;;;10.70;5.70;;;18.80;99.90;;;;;;5050164;28;20847;-57
2023/04/05 08:36:04;;;;;;;12.77;5.47;;;18.90;99.90;;;;;;5050741;28;20758;-57
2023/04/05 08:38:29;;;;;;;11.60;6.10;;;18.30;99.90;;;;;;5050441;28;20408;-57
2023/04/05 08:40:55;;;;;;;10.70;5.70;;;17.90;99.90;;;;;;5049694;28;20863;-57
2023/04/05 08:44:01;;;;;;;11.43;5.68;;;17.90;99.90;;;;;;5050192;28;20464;-54
2023/04/05 08:46:30;;;;;;;12.40;6.47;;;19.50;99.90;;;;;;5050854;28;20441;-54
2023/04/05 08:48:57;;;;;;;13.48;12.10;;;19.10;99.90;;;;;;5049416;28;20381;-57
2023/04/05 08:51:25;;;;;;;13.73;11.73;;;19.00;99.90;;;;;;5050471;28;20463;-55
2023/04/05 08:53:51;;;;;;;10.13;5.90;;;;;;;;;;5049237;28;20875;-54
2023/04/05 08:56:24;;;;;;;10.75;5.43;;;20.60;99.90;;;;;;5050493;28;20384;-54
2023/04/05 08:59:02;;;;;;;11.15;5.80;;;21.10;99.90;;;;;;5049471;28;20385;-54
2023/04/05 09:01:30;;;;;;;10.35;5.50;;;19.30;99.90;;;;;;5050035;28;20408;-57
2023/04/05 09:04:00;;;;;;;10.82;5.78;;;;;;;;;;5050163;28;20384;-57
2023/04/05 09:06:27;;;;;;;11.35;5.63;;;19.00;99.90;;;;;;5049669;28;20853;-57
2023/04/05 09:08:55;;;;;;;11.65;6.05;;;19.10;99.90;;;;;;5049002;28;20377;-54
2023/04/05 09:11:22;;;;;;;10.20;5.10;;;20.00;99.90;;;;;;5050222;28;20413;-54
2023/04/05 09:13:48;;;;;;;12.60;11.30;;;20.30;99.90;;;;;;5049230;28;20866;-55
2023/04/05 09:16:17;;;;;;;11.87;10.57;;;20.50;99.90;;;;;;5050284;28;20502;-55
2023/04/05 09:18:42;;;;;;;12.27;11.02;;;20.80;99.90;;;;;;5048527;28;20423;-55
2023/04/05 09:21:09;;;;;;;12.98;10.35;;;21.30;99.90;;;;;;5049325;28;20385;-54
2023/04/05 09:23:36;;;;;;;12.60;10.90;;;22.00;99.90;;;;;;5048835;28;20396;-55
2023/04/05 09:26:23;;;;;;;11.73;9.73;;;21.20;99.90;;;;;;5050056;28;20416;-54
2023/04/05 09:28:50;;;;;;;10.70;8.90;;;18.50;99.90;;;;;;5048557;28;20403;-57
2023/04/05 09:31:35;;;;;;;12.20;9.10;;;17.60;99.90;;;;;;5031807;28;20793;-54
2023/04/05 09:34:04;;;;;;;10.90;8.90;;;16.30;99.90;;;;;;5049689;28;20373;-54
2023/04/05 09:36:33;;;;;;;11.38;9.07;;;18.10;99.90;;;;;;5049689;28;20399;-55
2023/04/05 09:39:07;;;;;;;13.40;9.68;;;19.40;99.90;;;;;;5049671;28;20374;-55
2023/04/05 09:41:34;;;;;;;10.45;8.65;;;18.70;99.90;;;;;;5049509;28;20381;-58
2023/04/05 09:43:59;;;;;;;11.07;9.30;;;18.70;99.90;;;;;;5050080;28;20781;-57
2023/04/05 09:46:32;;;;;;;11.40;9.20;;;18.60;99.90;;;;;;5049402;28;20389;-57
2023/04/05 09:48:58;;;;;;;11.35;9.20;;;19.20;99.90;;;;;;5049682;28;20850;-57
2023/04/05 09:51:31;;;;;;;10.83;8.70;;;19.00;99.90;;;;;;5049785;28;20471;-58
2023/04/05 09:54:06;;;;;;;11.43;9.90;;;18.40;99.90;;;;;;5049330;28;20417;-57
2023/04/05 09:56:36;;;;;;;13.40;9.40;;;18.20;99.90;;;;;;5048600;28;20389;-58
2023/04/05 09:59:06;;;;;;;10.30;8.98;;;18.70;99.90;;;;;;5049474;28;20398;-55
2023/04/05 10:01:33;;;;;;;12.10;9.23;;;19.80;99.90;;;;;;5048874;28;20397;-55
2023/04/05 10:03:59;;;;;;;13.57;8.93;;;20.20;99.90;;;;;;5049089;28;20381;-55
2023/04/05 10:06:43;;;;;;;11.23;9.68;;;19.60;99.90;;;;;;5049056;28;20439;-55
2023/04/05 10:09:10;;;;;;;12.07;9.10;;;19.40;99.90;;;;;;5049488;28;20810;-55
2023/04/05 10:11:42;;;;;;;10.80;8.60;;;19.40;99.90;;;;;;5048622;28;20463;-57
2023/04/05 10:14:08;;;;;;;10.60;8.30;;;19.10;99.90;;;;;;5049354;28;20766;-57
2023/04/05 10:16:46;;;;;;;11.90;8.30;;;18.90;99.90;;;;;;5048566;28;20381;-57
2023/04/05 10:19:22;;;;;;;9.90;7.93;;;19.40;99.90;;;;;;5049095;28;20386;-57
2023/04/05 10:21:50;;;;;;;11.57;9.07;;;18.10;99.90;;;;;;5048745;28;20874;-57
2023/04/05 10:24:36;;;;;;;12.57;9.02;;;18.20;99.90;;;;;;5048956;28;20420;-56
2023/04/05 10:27:26;;;;;;;12.27;8.73;;;17.90;99.90;;;;;;5049416;28;20370;-56
2023/04/05 10:30:12;;;;;;;10.23;8.20;;;17.80;99.90;;;;;;5051683;28;20428;-55
2023/04/05 10:33:02;;;;;;;11.43;8.30;;;17.40;99.90;;;;;;5052240;28;20474;-55
2023/04/05 10:35:39;;;;;;;11.60;8.27;;;17.70;99.90;;;;;;5053014;28;20374;-55
2023/04/05 10:38:15;;;;;;;11.73;8.70;;;18.50;99.90;;;;;;5053516;28;20830;-54
2023/04/05 10:40:45;;;;;;;12.30;8.57;;;17.70;99.90;;;;;;5051953;28;20385;-54
2023/04/05 10:43:16;;;;;;;10.18;7.50;;;16.60;99.90;;;;;;5052767;28;20428;-54
2023/04/05 10:45:43;;;;;;;12.15;8.07;;;16.60;99.90;;;;;;5051945;28;20393;-55
2023/04/05 10:48:34;;;;;;;11.23;7.68;;;15.40;99.90;;;;;;5052868;28;20377;-56
2023/04/05 10:51:00;;;;;;;10.77;7.13;;;15.00;99.90;;;;;;5052644;28;20405;-54
2023/04/05 10:53:26;;;;;;;10.40;7.55;;;15.00;99.90;;;;;;5052835;28;20369;-56
2023/04/05 10:55:53;;;;;;;11.40;8.10;;;14.50;99.90;;;;;;5051767;28;20744;-56
2023/04/05 10:58:20;;;;;;;12.63;8.07;;;13.90;99.90;;;;;;5052666;28;20626;-56
2023/04/05 11:00:47;;;;;;;12.60;8.20;;;14.60;99.90;;;;;;5052213;28;20480;-56
2023/04/05 11:03:42;;;;;;;13.68;8.07;;;14.20;99.90;;;;;;5052609;28;20389;-56
2023/04/05 11:06:30;;;;;;;13.60;7.18;;;14.40;99.90;;;;;;5052128;28;20382;-54
2023/04/05 11:09:00;;;;;;;11.77;7.00;;;15.10;99.90;;;;;;5051688;28;20390;-57
2023/04/05 11:11:26;;;;;;;10.45;7.55;;;15.20;99.90;;;;;;5052128;28;20409;-54
2023/04/05 11:13:54;;;;;;;11.93;7.77;;;15.70;99.90;;;;;;5051584;28;20385;-53
2023/04/05 11:16:23;;;;;;;12.25;8.40;;;15.60;99.90;;;;;;5051998;28;20397;-53
2023/04/05 11:18:51;;;;;;;13.25;8.10;;;14.90;99.90;;;;;;5051599;28;20882;-53
2023/04/05 11:21:24;;;;;;;11.32;8.00;;;15.20;99.90;;;;;;5052265;28;20386;-54
2023/04/05 11:24:14;;;;;;;11.43;8.20;;;16.00;99.90;;;;;;5051550;28;20385;-54
2023/04/05 11:26:39;;;;;;;13.30;7.82;;;15.60;99.90;;;;;;5051348;28;20382;-54
2023/04/05 11:29:05;;;;;;;10.73;7.70;;;15.60;99.90;;;;;;5051397;28;20467;-54
2023/04/05 11:31:31;;;;;;;12.55;7.80;;;15.30;99.90;;;;;;5052141;28;20405;-54
2023/04/05 11:34:11;;;;;;;13.40;7.30;;;15.80;99.90;;;;;;5052433;28;20850;-55
2023/04/05 11:36:37;;;;;;;12.40;8.10;;;13.80;99.90;;;;;;5051756;28;20389;-56
2023/04/05 11:39:21;;;;;;;13.65;7.90;;;13.10;99.90;;;;;;5051402;28;20381;-55
2023/04/05 11:42:14;;;;;;;11.60;7.43;;;13.10;99.90;;;;;;5049659;28;20505;-55
2023/04/05 11:44:47;;;;;;;10.40;7.33;;;13.50;99.90;;;;;;5047873;28;20554;-55
2023/04/05 11:47:17;;;;;;;9.40;6.70;;;13.30;99.90;;;;;;5051599;28;20393;-55
2023/04/05 11:49:42;;;;;;;10.68;7.00;;;13.40;99.90;;;;;;5050416;28;20886;-55
2023/04/05 11:52:16;;;;;;;11.77;7.78;;;12.80;99.90;;;;;;5051485;28;20410;-55
2023/04/05 11:54:46;;;;;;;10.43;7.10;;;12.80;99.90;;;;;;5050882;28;20859;-55
2023/04/05 11:57:20;;;;;;;12.30;7.60;;;12.80;99.90;;;;;;5050831;28;20459;-55
2023/04/05 11:59:48;;;;;;;11.48;7.30;;;12.90;99.90;;;;;;5050475;28;20410;-55
2023/04/05 12:02:14;;;;;;;12.18;6.80;;;13.00;99.90;;;;;;5051389;28;20882;-55
2023/04/05 12:04:40;;;;;;;11.70;7.50;;;13.10;99.90;;;;;;5050027;28;20871;-55
2023/04/05 12:07:19;;;;;;;9.90;6.45;;;13.00;99.90;;;;;;5050964;28;20467;-56
2023/04/05 12:09:56;;;;;;;12.20;7.18;;;13.30;99.90;;;;;;5050307;28;20409;-55
2023/04/05 12:12:22;;;;;;;9.43;6.80;;;13.30;99.90;;;;;;5050961;28;20448;-55
2023/04/05 12:14:48;;;;;;;10.02;7.10;;;13.20;99.90;;;;;;5049913;28;20394;-55
2023/04/05 12:17:14;;;;;;;10.70;7.30;;;13.20;99.90;;;;;;5051220;28;20877;-55
2023/04/05 12:19:40;;;;;;;11.15;7.80;;;13.00;99.90;;;;;;5050316;28;20385;-55
2023/04/05 12:22:06;;;;;;;11.65;7.70;;;13.20;99.90;;;;;;5050854;28;20390;-55
2023/04/05 12:24:32;;;;;;;10.73;7.90;;;13.40;99.90;;;;;;5051070;28;20420;-55
2023/04/05 12:26:58;;;;;;;12.30;7.47;;;13.00;99.90;;;;;;5050995;28;20871;-55
2023/04/05 12:29:24;;;;;;;10.13;7.07;;;12.90;99.90;;;;;;5050536;28;21267;-55
2023/04/05 12:31:50;;;;;;;11.88;6.90;;;13.20;99.90;;;;;;5049959;28;20440;-55
2023/04/05 12:34:24;;;;;;;11.23;7.80;;;12.90;99.90;;;;;;5050641;28;20406;-56
2023/04/05 12:36:51;;;;;;;11.48;7.45;;;12.90;99.90;;;;;;5032063;28;21251;-55
2023/04/05 12:39:16;;;;;;;9.40;6.90;;;12.70;99.90;;;;;;5050237;28;20827;-55
2023/04/05 12:41:42;;;;;;;10.70;7.17;;;12.50;99.90;;;;;;5050209;28;20472;-55
2023/04/05 12:44:14;;;;;;;12.88;6.72;;;12.40;99.90;;;;;;5050213;28;20476;-55
2023/04/05 12:46:41;;;;;;;11.52;7.32;;;12.40;99.90;;;;;;5049732;28;20434;-55
2023/04/05 12:49:17;;;;;;;11.05;7.35;;;12.60;99.90;;;;;;5050584;28;20383;-55